createdAt,value
2019-04-03T00:01:19.574Z,85.60
2019-04-03T00:03:53.231Z,85.60
2019-04-03T00:06:26.875Z,85.40
2019-04-03T00:09:00.597Z,85.30
2019-04-03T00:11:34.296Z,85.30
2019-04-03T00:14:07.960Z,85.50
2019-04-03T00:16:41.660Z,85.70
2019-04-03T00:19:17.342Z,86.10
2019-04-03T00:21:51.162Z,85.90
2019-04-03T00:24:24.968Z,86.40
2019-04-03T00:26:58.604Z,86.30
2019-04-03T00:29:32.323Z,86.30
2019-04-03T00:32:05.949Z,86.30
2019-04-03T00:34:39.677Z,86.40
2019-04-03T00:37:13.335Z,86.50
2019-04-03T00:39:46.956Z,86.80
2019-04-03T00:42:20.680Z,87.30
2019-04-03T00:44:54.932Z,87.30
2019-04-03T00:47:28.697Z,87.60
2019-04-03T00:50:02.355Z,87.80
2019-04-03T00:52:36.177Z,87.60
2019-04-03T00:55:10.103Z,88.00
2019-04-03T00:57:43.807Z,88.00
2019-04-03T01:00:17.846Z,88.50
2019-04-03T01:02:52.065Z,88.30
2019-04-03T01:05:28.094Z,88.60
2019-04-03T01:08:01.607Z,89.00
2019-04-03T01:10:35.324Z,89.40
2019-04-03T01:13:09.065Z,89.40
2019-04-03T01:15:42.716Z,89.20
2019-04-03T01:18:16.347Z,89.80
2019-04-03T01:20:50.067Z,89.70
2019-04-03T01:23:23.704Z,89.80
2019-04-03T01:25:57.447Z,89.80
2019-04-03T01:28:31.067Z,89.80
2019-04-03T01:31:04.803Z,89.90
2019-04-03T01:33:38.505Z,90.10
2019-04-03T01:36:12.241Z,90.20
2019-04-03T01:38:45.787Z,90.10
2019-04-03T01:41:21.306Z,90.30
2019-04-03T01:43:54.738Z,90.20
2019-04-03T01:46:28.476Z,90.10
2019-04-03T01:49:02.364Z,90.40
2019-04-03T01:51:36.519Z,90.60
2019-04-03T01:54:10.140Z,90.60
2019-04-03T01:56:43.727Z,90.60
2019-04-03T01:59:17.354Z,90.50
2019-04-03T02:01:51.064Z,90.80
2019-04-03T02:04:24.678Z,90.70
2019-04-03T02:06:58.193Z,90.70
2019-04-03T02:09:31.847Z,90.80
2019-04-03T02:12:05.466Z,90.80
2019-04-03T02:14:39.047Z,90.80
2019-04-03T02:17:12.698Z,90.70
2019-04-03T02:19:46.428Z,90.70
2019-04-03T02:22:20.109Z,90.80
2019-04-03T02:24:53.704Z,90.90
2019-04-03T02:27:27.318Z,90.80
2019-04-03T02:30:03.033Z,91.00
2019-04-03T02:32:36.767Z,91.60
2019-04-03T02:35:10.657Z,91.90
2019-04-03T02:37:48.367Z,92.30
2019-04-03T02:40:19.996Z,92.60
2019-04-03T02:42:53.757Z,92.90
2019-04-03T02:45:27.442Z,93.60
2019-04-03T02:48:04.589Z,93.40
2019-04-03T02:50:36.668Z,93.60
2019-04-03T02:53:10.395Z,93.30
2019-04-03T02:55:44.110Z,93.40
2019-04-03T02:58:21.337Z,93.50
2019-04-03T03:00:53.338Z,93.50
2019-04-03T03:03:27.344Z,93.00
2019-04-03T03:06:01.486Z,93.10
2019-04-03T03:08:35.237Z,92.90
2019-04-03T03:11:09.165Z,92.90
2019-04-03T03:13:43.868Z,93.00
2019-04-03T03:16:18.787Z,92.60
2019-04-03T03:18:52.659Z,92.30
2019-04-03T03:21:26.950Z,92.40
2019-04-03T03:24:01.344Z,92.60
2019-04-03T03:26:38.335Z,92.80
2019-04-03T03:29:17.637Z,92.70
2019-04-03T03:32:06.355Z,92.80
2019-04-03T03:34:45.119Z,92.90
2019-04-03T03:37:02.797Z,92.60
2019-04-03T03:39:35.126Z,92.90
2019-04-03T03:42:09.447Z,93.20
2019-04-03T03:44:45.816Z,93.20
2019-04-03T03:47:18.732Z,93.10
2019-04-03T03:49:52.898Z,93.30
2019-04-03T03:52:26.659Z,93.20
2019-04-03T03:55:00.849Z,93.00
2019-04-03T03:57:38.410Z,93.40
2019-04-03T04:00:11.490Z,93.60
2019-04-03T04:02:45.629Z,93.70
2019-04-03T04:05:21.420Z,93.90
2019-04-03T04:07:55.674Z,94.40
2019-04-03T04:10:33.305Z,94.80
2019-04-03T04:13:05.760Z,94.70
2019-04-03T04:15:39.650Z,94.60
2019-04-03T04:18:14.903Z,94.30
2019-04-03T04:20:49.000Z,94.50
2019-04-03T04:23:25.212Z,94.10
2019-04-03T04:26:01.546Z,93.80
2019-04-03T04:28:39.521Z,93.60
2019-04-03T04:31:13.012Z,93.50
2019-04-03T04:33:47.945Z,93.60
2019-04-03T04:36:24.254Z,94.00
2019-04-03T04:38:57.989Z,94.10
2019-04-03T04:41:32.798Z,94.40
2019-04-03T04:44:07.992Z,94.80
2019-04-03T04:46:44.229Z,94.60
2019-04-03T04:49:17.564Z,94.40
2019-04-03T04:51:51.419Z,94.60
2019-04-03T04:54:25.072Z,94.70
2019-04-03T04:56:58.754Z,94.70
2019-04-03T04:59:32.417Z,95.00
2019-04-03T05:02:06.065Z,95.30
2019-04-03T05:04:39.735Z,95.20
2019-04-03T05:07:13.387Z,94.90
2019-04-03T05:09:47.014Z,94.80
2019-04-03T05:12:20.764Z,94.80
2019-04-03T05:14:54.444Z,94.80
2019-04-03T05:17:28.286Z,95.30
2019-04-03T05:20:01.987Z,95.90
2019-04-03T05:22:35.712Z,96.10
2019-04-03T05:25:09.410Z,96.90
2019-04-03T05:27:43.141Z,97.00
2019-04-03T05:30:30.017Z,97.10
2019-04-03T05:33:03.668Z,97.20
2019-04-03T05:35:37.671Z,97.10
2019-04-03T05:38:11.493Z,97.20
2019-04-03T05:40:45.114Z,97.00
2019-04-03T05:43:18.855Z,97.20
2019-04-03T05:45:52.473Z,96.90
2019-04-03T05:48:26.131Z,97.00
2019-04-03T05:50:59.749Z,97.10
2019-04-03T05:53:33.629Z,96.90
2019-04-03T05:56:11.596Z,97.20
2019-04-03T05:58:54.622Z,97.20
2019-04-03T06:01:19.267Z,97.20
2019-04-03T06:03:52.843Z,96.90
2019-04-03T06:06:28.220Z,97.20
2019-04-03T06:09:01.943Z,97.20
2019-04-03T06:11:35.599Z,97.10
2019-04-03T06:14:09.519Z,96.70
2019-04-03T06:16:43.360Z,96.90
2019-04-03T06:19:17.045Z,96.90
2019-04-03T06:21:50.704Z,97.00
2019-04-03T06:24:24.984Z,96.80
2019-04-03T06:26:58.785Z,97.10
2019-04-03T06:29:32.444Z,96.80
2019-04-03T06:32:06.471Z,96.20
2019-04-03T06:34:42.706Z,96.30
2019-04-03T06:37:15.439Z,96.70
2019-04-03T06:39:49.104Z,96.80
2019-04-03T06:42:22.814Z,96.70
2019-04-03T06:44:56.540Z,97.10
2019-04-03T06:47:32.247Z,97.10
2019-04-03T06:50:11.712Z,97.20
2019-04-03T06:52:44.222Z,97.20
2019-04-03T06:55:18.062Z,97.20
2019-04-03T06:57:51.980Z,97.20
2019-04-03T07:00:25.755Z,97.20
2019-04-03T07:02:59.553Z,97.20
2019-04-03T07:05:33.307Z,96.70
2019-04-03T07:08:07.138Z,96.30
2019-04-03T07:10:40.852Z,96.30
2019-04-03T07:13:15.246Z,97.20
2019-04-03T07:15:49.168Z,96.90
2019-04-03T07:18:22.819Z,97.00
2019-04-03T07:20:56.436Z,97.20
2019-04-03T07:23:30.320Z,97.20
2019-04-03T07:26:05.223Z,97.20
2019-04-03T07:28:41.613Z,97.20
2019-04-03T07:31:14.639Z,97.20
2019-04-03T07:33:48.437Z,97.20
2019-04-03T07:36:22.164Z,97.20
2019-04-03T07:38:58.053Z,97.20
2019-04-03T07:41:31.223Z,97.20
2019-04-03T07:44:05.422Z,97.20
2019-04-03T07:46:39.077Z,97.20
2019-04-03T07:49:14.288Z,97.20
2019-04-03T07:51:48.130Z,97.20
2019-04-03T07:54:22.626Z,97.20
2019-04-03T07:56:57.723Z,97.20
2019-04-03T07:59:33.466Z,97.20
2019-04-03T08:02:07.512Z,97.20
2019-04-03T08:04:41.298Z,97.20
2019-04-03T08:07:15.028Z,97.20
2019-04-03T08:09:48.658Z,97.20
2019-04-03T08:12:22.401Z,97.20
2019-04-03T08:14:56.135Z,97.20
2019-04-03T08:17:29.847Z,97.20
2019-04-03T08:20:05.070Z,97.20
2019-04-03T08:22:39.107Z,97.20
2019-04-03T08:25:13.140Z,97.20
2019-04-03T08:27:47.093Z,97.20
2019-04-03T08:30:20.809Z,97.20
2019-04-03T08:32:54.438Z,97.20
2019-04-03T08:35:28.105Z,97.20
2019-04-03T08:38:01.840Z,97.20
2019-04-03T08:40:35.579Z,97.20
2019-04-03T08:43:09.673Z,97.20
2019-04-03T08:45:43.412Z,97.20
2019-04-03T08:48:18.077Z,97.20
2019-04-03T08:50:52.169Z,97.20
2019-04-03T08:53:26.951Z,97.20
2019-04-03T08:56:00.688Z,97.20
2019-04-03T08:58:34.712Z,97.20
2019-04-03T09:01:10.415Z,97.20
2019-04-03T09:03:43.907Z,97.20
2019-04-03T09:06:20.897Z,97.00
2019-04-03T09:08:57.279Z,96.90
2019-04-03T09:11:30.172Z,96.70
2019-04-03T09:14:03.919Z,96.10
2019-04-03T09:16:37.863Z,96.20
2019-04-03T09:19:11.659Z,96.20
2019-04-03T09:21:50.199Z,95.40
2019-04-03T09:24:20.631Z,95.70
2019-04-03T09:26:54.370Z,95.90
2019-04-03T09:29:28.375Z,94.50
2019-04-03T09:32:02.136Z,94.40
2019-04-03T09:34:35.829Z,93.40
2019-04-03T09:37:09.571Z,92.80
2019-04-03T09:39:44.858Z,93.80
2019-04-03T09:42:19.569Z,93.70
2019-04-03T09:44:56.239Z,92.70
2019-04-03T09:47:29.376Z,93.30
2019-04-03T09:50:04.716Z,92.40
2019-04-03T09:52:45.010Z,92.40
2019-04-03T09:55:13.840Z,92.30
2019-04-03T09:57:47.735Z,92.10
2019-04-03T10:00:23.965Z,93.80
2019-04-03T10:02:57.755Z,93.20
2019-04-03T10:05:31.820Z,92.40
2019-04-03T10:08:07.598Z,93.10
2019-04-03T10:10:41.176Z,94.60
2019-04-03T10:13:15.248Z,93.00
2019-04-03T10:15:49.012Z,92.10
2019-04-03T10:18:22.671Z,92.50
2019-04-03T10:20:56.487Z,92.80
2019-04-03T10:23:30.207Z,90.60
2019-04-03T10:26:03.919Z,90.90
2019-04-03T10:28:37.772Z,91.70
2019-04-03T10:31:11.717Z,91.40
2019-04-03T10:33:45.503Z,90.40
2019-04-03T10:36:19.558Z,89.20
2019-04-03T10:38:53.567Z,90.50
2019-04-03T10:41:28.756Z,90.40
2019-04-03T10:44:02.849Z,91.00
2019-04-03T10:46:36.722Z,92.10
2019-04-03T10:49:10.629Z,92.60
2019-04-03T10:51:44.375Z,93.50
2019-04-03T10:54:18.117Z,93.60
2019-04-03T10:56:52.093Z,93.80
2019-04-03T10:59:25.880Z,94.50
2019-04-03T11:01:59.801Z,93.40
2019-04-03T11:04:33.469Z,93.10
2019-04-03T11:07:07.095Z,92.50
2019-04-03T11:09:41.131Z,92.60
2019-04-03T11:12:14.927Z,92.50
2019-04-03T11:14:48.660Z,93.30
2019-04-03T11:17:24.991Z,94.80
2019-04-03T11:19:57.682Z,95.30
2019-04-03T11:22:41.058Z,97.00
2019-04-03T11:25:08.215Z,97.20
2019-04-03T11:27:44.656Z,96.90
2019-04-03T11:30:23.348Z,95.30
2019-04-03T11:32:53.793Z,93.60
2019-04-03T11:35:27.549Z,92.90
2019-04-03T11:38:12.178Z,92.50
2019-04-03T11:40:36.799Z,93.90
2019-04-03T11:43:10.459Z,91.20
2019-04-03T11:45:44.154Z,89.90
2019-04-03T11:48:17.921Z,90.10
2019-04-03T11:50:51.708Z,87.70
2019-04-03T11:53:25.292Z,90.00
2019-04-03T11:55:58.977Z,88.10
2019-04-03T11:58:32.679Z,87.90
2019-04-03T12:01:07.706Z,88.50
2019-04-03T12:03:42.295Z,89.60
2019-04-03T12:06:19.540Z,89.30
2019-04-03T12:08:52.393Z,86.20
2019-04-03T12:11:26.072Z,85.90
2019-04-03T12:13:59.740Z,84.00
2019-04-03T12:16:33.680Z,85.20
2019-04-03T12:19:07.375Z,82.70
2019-04-03T12:21:41.249Z,83.30
2019-04-03T12:24:15.043Z,83.00
2019-04-03T12:26:51.350Z,84.40
2019-04-03T12:29:24.183Z,84.00
2019-04-03T12:31:58.036Z,84.50
2019-04-03T12:34:32.064Z,85.30
2019-04-03T12:37:06.010Z,84.00
2019-04-03T12:39:39.916Z,86.30
2019-04-03T12:42:16.497Z,85.00
2019-04-03T12:44:49.112Z,85.80
2019-04-03T12:47:22.804Z,86.10
2019-04-03T12:49:56.693Z,85.30
2019-04-03T12:52:30.765Z,84.90
2019-04-03T12:55:06.696Z,84.30
2019-04-03T12:57:40.402Z,84.70
2019-04-03T13:00:16.232Z,81.70
2019-04-03T13:02:50.069Z,82.30
2019-04-03T13:05:25.353Z,79.70
2019-04-03T13:07:59.807Z,80.60
2019-04-03T13:10:41.444Z,79.40
2019-04-03T13:13:09.358Z,80.80
2019-04-03T13:15:43.019Z,79.50
2019-04-03T13:18:16.752Z,79.00
2019-04-03T13:20:50.392Z,80.30
2019-04-03T13:23:24.439Z,80.50
2019-04-03T13:25:58.370Z,81.40
2019-04-03T13:28:34.865Z,81.60
2019-04-03T13:31:07.574Z,82.90
2019-04-03T13:33:41.319Z,84.70
2019-04-03T13:36:15.193Z,82.40
2019-04-03T13:38:51.023Z,81.20
2019-04-03T13:41:24.620Z,80.70
2019-04-03T13:43:58.369Z,81.10
2019-04-03T13:46:32.487Z,81.20
2019-04-03T13:49:06.289Z,82.10
2019-04-03T13:51:39.939Z,83.20
2019-04-03T13:54:13.682Z,83.60
2019-04-03T13:56:47.364Z,84.10
2019-04-03T13:59:20.983Z,84.60
2019-04-03T14:01:54.708Z,84.90
2019-04-03T14:04:28.403Z,82.70
2019-04-03T14:07:03.759Z,82.40
2019-04-03T14:09:37.525Z,79.60
2019-04-03T14:12:11.180Z,78.50
2019-04-03T14:14:45.240Z,79.10
2019-04-03T14:17:20.184Z,76.80
2019-04-03T14:19:53.803Z,78.10
2019-04-03T14:22:30.482Z,77.80
2019-04-03T14:25:03.006Z,78.50
2019-04-03T14:27:37.261Z,78.90
2019-04-03T14:30:12.159Z,80.70
2019-04-03T14:32:46.538Z,81.70
2019-04-03T14:37:58.290Z,80.40
2019-04-03T14:40:31.373Z,80.20
2019-04-03T14:43:05.212Z,80.30
2019-04-03T14:45:40.187Z,81.20
2019-04-03T14:48:14.035Z,81.60
2019-04-03T14:50:47.624Z,81.70
2019-04-03T14:53:22.031Z,82.70
2019-04-03T14:55:56.269Z,82.90
2019-04-03T14:58:29.980Z,82.60
2019-04-03T15:01:03.609Z,82.30
2019-04-03T15:03:37.265Z,82.80
2019-04-03T15:06:12.302Z,82.70
2019-04-03T15:08:46.209Z,84.20
2019-04-03T15:11:21.800Z,84.10
2019-04-03T15:13:55.156Z,84.20
2019-04-03T15:16:30.701Z,84.40
2019-04-03T15:19:05.028Z,84.50
2019-04-03T15:21:38.884Z,84.80
2019-04-03T15:24:13.081Z,85.30
2019-04-03T15:26:46.925Z,85.60
2019-04-03T15:29:20.617Z,85.70
2019-04-03T15:31:54.742Z,86.30
2019-04-03T15:34:29.393Z,85.90
2019-04-03T15:37:03.164Z,86.30
2019-04-03T15:39:36.896Z,86.30
2019-04-03T15:42:10.673Z,86.70
2019-04-03T15:44:44.341Z,87.10
2019-04-03T15:47:23.383Z,87.20
2019-04-03T15:49:53.387Z,86.90
2019-04-03T15:52:27.050Z,87.80
2019-04-03T15:55:03.728Z,88.00
2019-04-03T15:57:38.806Z,88.90
2019-04-03T16:00:13.716Z,88.70
2019-04-03T16:02:47.921Z,88.40
2019-04-03T16:05:22.112Z,88.30
2019-04-03T16:07:56.244Z,88.00
2019-04-03T16:10:29.960Z,88.00
2019-04-03T16:13:03.735Z,88.00
2019-04-03T16:15:37.799Z,88.00
2019-04-03T16:18:11.654Z,88.70
2019-04-03T16:20:46.744Z,89.10
2019-04-03T16:23:20.784Z,89.50
2019-04-03T16:25:54.508Z,90.20
2019-04-03T16:28:28.611Z,91.00
2019-04-03T16:31:02.499Z,91.60
2019-04-03T16:33:36.929Z,92.20
2019-04-03T16:36:11.320Z,92.00
2019-04-03T16:38:44.907Z,91.80
2019-04-03T16:41:18.955Z,91.80
2019-04-03T16:43:52.902Z,92.00
2019-04-03T16:46:28.188Z,92.60
2019-04-03T16:49:02.202Z,93.10
2019-04-03T16:51:36.040Z,93.10
2019-04-03T16:54:11.965Z,93.30
2019-04-03T16:56:45.336Z,93.70
2019-04-03T16:59:19.009Z,93.60
2019-04-03T17:01:52.719Z,94.60
2019-04-03T17:04:28.602Z,95.00
2019-04-03T17:07:01.819Z,95.00
2019-04-03T17:09:38.215Z,96.00
2019-04-03T17:12:12.271Z,96.10
2019-04-03T17:14:45.925Z,96.40
2019-04-03T17:17:19.715Z,96.60
2019-04-03T17:19:53.909Z,97.00
2019-04-03T17:22:27.667Z,96.50
2019-04-03T17:25:01.305Z,97.20
2019-04-03T17:27:35.019Z,97.20
2019-04-03T17:30:12.348Z,97.20
2019-04-03T17:32:46.269Z,97.20
2019-04-03T17:35:20.253Z,97.20
2019-04-03T17:37:54.015Z,97.20
2019-04-03T17:40:27.671Z,97.20
2019-04-03T17:43:01.303Z,97.20
2019-04-03T17:45:34.939Z,97.20
2019-04-03T17:48:09.103Z,97.20
2019-04-03T17:50:42.728Z,97.20
2019-04-03T17:53:16.389Z,97.20
2019-04-03T17:55:50.001Z,97.20
2019-04-03T17:58:23.737Z,97.20
2019-04-03T18:00:57.357Z,97.20
2019-04-03T18:03:31.091Z,97.20
2019-04-03T18:06:05.147Z,97.20
2019-04-03T18:08:38.765Z,97.20
2019-04-03T18:11:13.299Z,97.20
2019-04-03T18:13:48.704Z,97.20
2019-04-03T18:16:22.588Z,97.20
2019-04-03T18:18:56.223Z,97.20
2019-04-03T18:21:29.849Z,97.20
2019-04-03T18:24:03.664Z,97.20
2019-04-03T18:26:37.336Z,97.20
2019-04-03T18:29:10.935Z,97.20
2019-04-03T18:31:45.166Z,97.20
2019-04-03T18:34:19.851Z,97.20
2019-04-03T18:36:53.902Z,97.20
2019-04-03T18:39:27.631Z,97.20
2019-04-03T18:42:01.327Z,97.20
2019-04-03T18:44:35.049Z,97.20
2019-04-03T18:47:08.691Z,97.20
2019-04-03T18:49:42.619Z,97.20
2019-04-03T18:52:16.256Z,97.20
2019-04-03T18:54:49.976Z,97.20
2019-04-03T18:57:23.637Z,97.20
2019-04-03T19:00:00.378Z,97.20
2019-04-03T19:02:34.304Z,97.20
2019-04-03T19:05:09.858Z,97.20
2019-04-03T19:07:45.971Z,97.20
2019-04-03T19:10:22.847Z,97.20
2019-04-03T19:12:54.598Z,97.20
2019-04-03T19:15:28.343Z,97.20
2019-04-03T19:18:05.925Z,97.20
2019-04-03T19:20:39.671Z,97.20
2019-04-03T19:23:12.795Z,96.90
2019-04-03T19:25:46.584Z,96.30
2019-04-03T19:28:20.323Z,96.60
2019-04-03T19:30:54.014Z,96.50
2019-04-03T19:33:29.444Z,97.20
2019-04-03T19:36:03.081Z,97.20
2019-04-03T19:38:36.814Z,97.20
2019-04-03T19:41:11.835Z,97.20
2019-04-03T19:43:46.344Z,97.20
2019-04-03T19:46:20.919Z,97.20
2019-04-03T19:48:56.883Z,97.20
2019-04-03T19:51:30.800Z,97.20
2019-04-03T19:54:04.524Z,97.20
2019-04-03T19:56:38.217Z,97.20
2019-04-03T19:59:11.952Z,97.20
2019-04-03T20:01:45.648Z,97.20
2019-04-03T20:04:19.306Z,97.20
2019-04-03T20:06:54.786Z,97.20
2019-04-03T20:09:28.319Z,97.20
2019-04-03T20:12:06.828Z,97.20
2019-04-03T20:14:39.061Z,97.20
2019-04-03T20:17:12.759Z,97.20
2019-04-03T20:19:46.491Z,97.20
2019-04-03T20:22:20.185Z,97.20
2019-04-03T20:24:59.973Z,97.20
2019-04-03T20:27:29.259Z,97.20
2019-04-03T20:30:03.991Z,97.20
2019-04-03T20:32:39.835Z,97.20
2019-04-03T20:35:13.074Z,97.20
2019-04-03T20:37:46.687Z,97.20
2019-04-03T20:40:20.364Z,97.20
2019-04-03T20:42:54.058Z,97.20
2019-04-03T20:45:27.736Z,97.20
2019-04-03T20:48:01.430Z,97.20
2019-04-03T20:50:36.004Z,97.20
2019-04-03T20:53:10.511Z,97.20
2019-04-03T20:55:44.536Z,97.20
2019-04-03T20:58:18.207Z,97.20
2019-04-03T21:01:05.708Z,97.20
2019-04-03T21:03:27.211Z,97.20
2019-04-03T21:06:00.905Z,97.20
2019-04-03T21:08:34.596Z,97.20
2019-04-03T21:11:08.343Z,97.20
2019-04-03T21:13:42.024Z,97.20
2019-04-03T21:16:16.911Z,97.20
2019-04-03T21:18:51.772Z,97.20
2019-04-03T21:21:26.083Z,97.20
2019-04-03T21:23:59.837Z,97.20
2019-04-03T21:26:33.591Z,97.20
2019-04-03T21:29:07.277Z,97.20
2019-04-03T21:31:40.940Z,97.20
2019-04-03T21:34:14.631Z,97.20
2019-04-03T21:36:48.461Z,97.20
2019-04-03T21:39:22.164Z,97.20
2019-04-03T21:41:55.892Z,97.20
2019-04-03T21:44:32.034Z,97.20
2019-04-03T21:47:05.636Z,97.20
2019-04-03T21:49:39.255Z,97.20
2019-04-03T21:52:12.914Z,97.20
2019-04-03T21:54:46.528Z,97.20
2019-04-03T21:57:20.106Z,97.20
2019-04-03T21:59:53.863Z,97.20
2019-04-03T22:02:27.556Z,97.20
2019-04-03T22:05:01.197Z,97.20
2019-04-03T22:07:34.823Z,97.20
2019-04-03T22:10:09.318Z,97.20
2019-04-03T22:12:43.166Z,97.20
2019-04-03T22:15:16.880Z,97.20
2019-04-03T22:17:52.408Z,97.20
2019-04-03T22:20:25.950Z,97.20
2019-04-03T22:22:59.646Z,97.20
2019-04-03T22:25:33.366Z,97.20
2019-04-03T22:28:07.006Z,97.20
2019-04-03T22:30:40.756Z,97.20
2019-04-03T22:33:14.385Z,97.20
2019-04-03T22:35:48.113Z,97.20
2019-04-03T22:38:21.741Z,97.20
2019-04-03T22:40:55.391Z,97.20
2019-04-03T22:43:29.018Z,97.20
2019-04-03T22:46:02.664Z,97.20
2019-04-03T22:48:36.296Z,97.20
2019-04-03T22:51:10.024Z,97.20
2019-04-03T22:53:43.657Z,97.20
2019-04-03T22:56:17.443Z,97.20
2019-04-03T22:58:52.852Z,97.20
2019-04-03T23:01:29.563Z,97.20
2019-04-03T23:04:04.819Z,97.20
2019-04-03T23:06:37.199Z,97.20
2019-04-03T23:09:10.820Z,97.20
2019-04-03T23:11:44.553Z,97.20
2019-04-03T23:14:18.252Z,97.20
2019-04-03T23:16:51.924Z,97.20
2019-04-03T23:19:25.618Z,97.20
2019-04-03T23:21:59.278Z,97.20
2019-04-03T23:24:32.982Z,97.20
2019-04-03T23:27:06.709Z,97.20
2019-04-03T23:29:40.418Z,97.20
2019-04-03T23:32:15.454Z,97.20
2019-04-03T23:34:50.074Z,97.20
2019-04-03T23:37:24.783Z,97.20
2019-04-03T23:39:59.133Z,97.20
2019-04-03T23:42:35.918Z,97.20
2019-04-03T23:45:10.982Z,97.20
2019-04-03T23:47:47.028Z,97.20
2019-04-03T23:50:21.998Z,97.20
2019-04-03T23:52:56.296Z,97.20
2019-04-03T23:55:30.015Z,97.20
2019-04-03T23:58:03.768Z,97.20
